Buoy 46611

sailwx.info

Track history (hours):
 
Tides and Currents Weather Stations Pressure Air Temp Water Temp Dewpoint Dewpoint Depression Visibility Wind Speed Wind Dir Waves Ship Positions

Drifting buoy 46611

Last reported at 2015-Apr-06 19:00 UTC. Time now 2015-May-28 00:00 UTC.
Position N 59°51' W 147°39'.
Warning: this ship's position is 51 days out of date.

Barometer 1005.0 mb
Water temperature 3.1 ° C

Date/timePositionNaut miles runAvg speedWind from/ knotsBaromVisibWave heightAir tempDewpointWater temp
2015-Apr-06 19:00N 59°51' W 147°39'0 0.0 1005.0 3.1
2015-Apr-06 16:00N 59°51' W 147°39'0 0.3 1005.9 2.5
2015-Apr-06 15:00N 59°50' W 147°39'0 0.2 1006.1 2.4
2015-Apr-06 14:00N 59°50' W 147°39'0 0.3 1006.3 2.5
2015-Apr-06 13:00N 59°51' W 147°38'1 0.1 1006.9 2.7
2015-Apr-06 06:00N 59°50' W 147°39'1 0.1 1009.6 3.1
2015-Apr-06 02:00N 59°50' W 147°38'0 0.0 1010.8 6.2
2015-Apr-06 01:00N 59°50' W 147°38'0 0.0 1011.3 6.4
2015-Apr-05 23:00N 59°50' W 147°38'1 0.2 1012.1 5.1
2015-Apr-05 19:00N 59°50' W 147°37'1 0.3 1012.8 2.7
2015-Apr-05 16:00N 59°51' W 147°38'1 0.1 1012.4 2.5
2015-Apr-05 05:00N 59°50' W 147°39'1 0.6 1013.0 6.2
2015-Apr-05 03:00N 59°51' W 147°38'0 0.1 1012.9 8.6
2015-Apr-05 02:00N 59°50' W 147°38'0 0.0 1013.0 8.6
2015-Apr-04 20:00N 59°51' W 147°38'0 0.1 1013.9 7.8
2015-Apr-04 15:00N 59°51' W 147°38'1 0.1 1014.5 -0.9
2015-Apr-04 04:00N 59°50' W 147°37'0 0.1 1015.9 7.9
2015-Apr-03 23:00N 59°51' W 147°38'0 0.0 1016.6 10.0
2015-Apr-03 17:00N 59°51' W 147°38'1 0.1 1017.6 1.9
2015-Apr-03 13:00N 59°51' W 147°39'0 0.0 1018.4 0.7
2015-Apr-03 12:00N 59°51' W 147°39'1 0.5 1018.5 0.4
2015-Apr-03 11:00N 59°50' W 147°38'0 0.0 1018.7 1.3
2015-Apr-03 06:00N 59°50' W 147°38'0 0.0 1018.0 4.1
2015-Apr-03 04:00N 59°50' W 147°38'0 0.1 1017.0 4.7
2015-Apr-03 01:00N 59°51' W 147°38'1 0.5 1015.7 5.7
2015-Apr-03 00:00N 59°51' W 147°37'1 0.4 1015.5 5.7
2015-Apr-02 21:00N 59°51' W 147°40'1 0.9 1014.7 4.7
2015-Apr-02 20:00N 59°51' W 147°39'1 0.2 1014.0 4.4
2015-Apr-02 16:00N 59°51' W 147°38'0 0.4 1011.5 2.8
2015-Apr-02 15:00N 59°51' W 147°37'0 0.0 1010.7 3.0
2015-Apr-02 14:00N 59°51' W 147°37'0 0.1 1009.9 3.1
2015-Apr-02 12:00N 59°51' W 147°37'0 0.1 1010.1 3.2
2015-Apr-02 05:00N 59°50' W 147°38'0 0.0 1010.8 2.6
2015-Apr-02 02:00N 59°50' W 147°38'0 0.0 1010.9 4.6
2015-Apr-02 01:00N 59°50' W 147°38'0 0.0 1011.0 6.8
2015-Apr-01 05:00N 59°50' W 147°38'0 0.2 1007.0 3.3
2015-Apr-01 04:00N 59°51' W 147°38'0 0.1 1006.4 4.8
2015-Apr-01 03:00N 59°51' W 147°38'1 0.2 1006.0 6.2
2015-Apr-01 00:00N 59°50' W 147°39'1 0.1 1005.1 6.6
2015-Mar-31 17:00N 59°50' W 147°38'0 0.2 1001.4 3.5
2015-Mar-31 16:00N 59°51' W 147°38'0 0.1 1001.1 3.0
2015-Mar-31 15:00N 59°50' W 147°38'1 0.8 1000.6 2.8
2015-Mar-31 14:00N 59°50' W 147°38'1 0.1 1000.3 2.8
2015-Mar-31 06:00N 59°51' W 147°38'0 0.0 1000.6 2.9
2015-Mar-31 05:00N 59°51' W 147°38'0 0.0 1001.0 3.5
2015-Mar-31 04:00N 59°51' W 147°38'0 0.2 1001.2 4.6
2015-Mar-31 02:00N 59°50' W 147°39'0 0.1 1002.2 5.8
2015-Mar-31 01:00N 59°50' W 147°39'0 0.1 1002.6 6.0
2015-Mar-30 23:00N 59°51' W 147°38'0 0.2 1003.2 6.4
2015-Mar-30 22:00N 59°51' W 147°38'0 0.0 1003.4 6.5
2015-Mar-30 21:00N 59°51' W 147°38'0 0.1 1003.6 5.8
2015-Mar-30 17:00N 59°50' W 147°38'1 0.6 1003.5 3.7
2015-Mar-30 16:00N 59°51' W 147°39'0 0.2 1003.3 3.6
2015-Mar-30 15:00N 59°51' W 147°38'1 0.6 1003.4 3.4
2015-Mar-30 14:00N 59°51' W 147°37'0 0.3 1003.6 3.5
2015-Mar-30 13:00N 59°51' W 147°38'0 0.0 1003.6 3.3
2015-Mar-30 12:00N 59°51' W 147°38'0 0.2 1003.8 3.5
2015-Mar-30 11:00N 59°50' W 147°38'0 0.0 1003.6 3.7
2015-Mar-30 07:00N 59°50' W 147°38'0 0.0 1002.1 4.6
2015-Mar-30 06:00N 59°50' W 147°38'0 0.0 1001.7 5.1
2015-Mar-30 05:00N 59°50' W 147°38'0 0.0 1001.0 5.2
2015-Mar-30 04:00N 59°50' W 147°38'0 0.2 1000.4 5.4
2015-Mar-30 03:00N 59°51' W 147°38'0 0.1 999.7 5.9
2015-Mar-30 01:00N 59°51' W 147°38'0 0.1 998.8 5.7
2015-Mar-30 00:00N 59°51' W 147°38'0 0.2 998.4 7.1
2015-Mar-29 23:00N 59°50' W 147°38'0 0.0 997.8 6.7
2015-Mar-29 22:00N 59°50' W 147°38'0 0.4 997.3 5.9
2015-Mar-29 21:00N 59°50' W 147°38'0 0.1 996.6 6.0
2015-Mar-29 17:00N 59°50' W 147°38'1 0.3 994.0 5.1
2015-Mar-29 15:00N 59°51' W 147°38'0 0.3 993.0 4.6
2015-Mar-29 14:00N 59°51' W 147°38'0 0.2 992.8 4.5
2015-Mar-29 13:00N 59°51' W 147°39'0 0.2 992.6 4.2
2015-Mar-29 12:00N 59°51' W 147°39'0 0.0 992.5 4.0
2015-Mar-29 11:00N 59°51' W 147°39'1 0.2 992.5 3.2
2015-Mar-29 05:00N 59°51' W 147°36'0 0.0 993.2 2.8
2015-Mar-29 04:00N 59°51' W 147°36'0 0.0 994.0 3.3
2015-Mar-29 03:00N 59°51' W 147°36'0 0.0 994.9 3.4
2015-Mar-29 02:00N 59°51' W 147°36'1 0.4 995.9 3.6
2015-Mar-29 00:00N 59°50' W 147°38'0 0.0 997.5 3.9
2015-Mar-28 23:00N 59°50' W 147°38'0 0.0 998.2 3.7
2015-Mar-28 22:00N 59°50' W 147°38'1 0.5 999.0 4.2
2015-Mar-28 21:00N 59°51' W 147°39'0 0.0 999.5 3.6
2015-Mar-28 20:00N 59°51' W 147°39'1 0.3 1000.6 4.1
2015-Mar-28 17:00N 59°50' W 147°37'0 0.0 1000.7 4.1
2015-Mar-28 16:00N 59°50' W 147°37'1 0.4 1000.8 4.0
2015-Mar-28 14:00N 59°51' W 147°38'0 0.0 1001.4 4.0
2015-Mar-28 13:00N 59°51' W 147°38'0 0.1 1001.9 3.9
2015-Mar-28 11:00N 59°50' W 147°39'0 0.2 1002.6 3.2
2015-Mar-28 10:00N 59°51' W 147°38'0 0.1 1002.9 2.9
2015-Mar-28 07:00N 59°50' W 147°39'0 0.0 1003.9 4.0
2015-Mar-28 06:00N 59°50' W 147°39'0 0.4 1003.6 3.3
2015-Mar-28 05:00N 59°51' W 147°38'0 0.3 1003.6 4.2
2015-Mar-28 04:00N 59°51' W 147°38'0 0.1 1003.7 3.8
2015-Mar-28 02:00N 59°50' W 147°38'0 0.0 1004.1 6.0
2015-Mar-28 01:00N 59°50' W 147°38'0 0.0 1004.7 6.7
2015-Mar-28 00:00N 59°50' W 147°38'0 0.2 1004.9 7.9
2015-Mar-27 22:00N 59°50' W 147°39'1 0.8 1005.4 8.0
2015-Mar-27 21:00N 59°50' W 147°37'   1005.6 8.1
Track history (hours):
 
Tides and Currents Weather Stations Pressure Air Temp Water Temp Dewpoint Dewpoint Depression Visibility Wind Speed Wind Dir Waves Ship Positions

Drifting buoy 46611

Last reported at 2015-Apr-06 19:00 UTC. Time now 2015-May-28 00:00 UTC.
Position N 59°51' W 147°39'.
Warning: this ship's position is 51 days out of date.

Barometer 1005.0 mb
Water temperature 3.1 ° C

Date/timePositionNaut miles runAvg speedWind from/ knotsBaromVisibWave heightAir tempDewpointWater temp
2015-Apr-06 19:00N 59°51' W 147°39'0 0.0 1005.0 3.1
2015-Apr-06 16:00N 59°51' W 147°39'0 0.3 1005.9 2.5
2015-Apr-06 15:00N 59°50' W 147°39'0 0.2 1006.1 2.4
2015-Apr-06 14:00N 59°50' W 147°39'0 0.3 1006.3 2.5
2015-Apr-06 13:00N 59°51' W 147°38'1 0.1 1006.9 2.7
2015-Apr-06 06:00N 59°50' W 147°39'1 0.1 1009.6 3.1
2015-Apr-06 02:00N 59°50' W 147°38'0 0.0 1010.8 6.2
2015-Apr-06 01:00N 59°50' W 147°38'0 0.0 1011.3 6.4
2015-Apr-05 23:00N 59°50' W 147°38'1 0.2 1012.1 5.1
2015-Apr-05 19:00N 59°50' W 147°37'1 0.3 1012.8 2.7
2015-Apr-05 16:00N 59°51' W 147°38'1 0.1 1012.4 2.5
2015-Apr-05 05:00N 59°50' W 147°39'1 0.6 1013.0 6.2
2015-Apr-05 03:00N 59°51' W 147°38'0 0.1 1012.9 8.6
2015-Apr-05 02:00N 59°50' W 147°38'0 0.0 1013.0 8.6
2015-Apr-04 20:00N 59°51' W 147°38'0 0.1 1013.9 7.8
2015-Apr-04 15:00N 59°51' W 147°38'1 0.1 1014.5 -0.9
2015-Apr-04 04:00N 59°50' W 147°37'0 0.1 1015.9 7.9
2015-Apr-03 23:00N 59°51' W 147°38'0 0.0 1016.6 10.0
2015-Apr-03 17:00N 59°51' W 147°38'1 0.1 1017.6 1.9
2015-Apr-03 13:00N 59°51' W 147°39'0 0.0 1018.4 0.7
2015-Apr-03 12:00N 59°51' W 147°39'1 0.5 1018.5 0.4
2015-Apr-03 11:00N 59°50' W 147°38'0 0.0 1018.7 1.3
2015-Apr-03 06:00N 59°50' W 147°38'0 0.0 1018.0 4.1
2015-Apr-03 04:00N 59°50' W 147°38'0 0.1 1017.0 4.7
2015-Apr-03 01:00N 59°51' W 147°38'1 0.5 1015.7 5.7
2015-Apr-03 00:00N 59°51' W 147°37'1 0.4 1015.5 5.7
2015-Apr-02 21:00N 59°51' W 147°40'1 0.9 1014.7 4.7
2015-Apr-02 20:00N 59°51' W 147°39'1 0.2 1014.0 4.4
2015-Apr-02 16:00N 59°51' W 147°38'0 0.4 1011.5 2.8
2015-Apr-02 15:00N 59°51' W 147°37'0 0.0 1010.7 3.0
2015-Apr-02 14:00N 59°51' W 147°37'0 0.1 1009.9 3.1
2015-Apr-02 12:00N 59°51' W 147°37'0 0.1 1010.1 3.2
2015-Apr-02 05:00N 59°50' W 147°38'0 0.0 1010.8 2.6
2015-Apr-02 02:00N 59°50' W 147°38'0 0.0 1010.9 4.6
2015-Apr-02 01:00N 59°50' W 147°38'0 0.0 1011.0 6.8
2015-Apr-01 05:00N 59°50' W 147°38'0 0.2 1007.0 3.3
2015-Apr-01 04:00N 59°51' W 147°38'0 0.1 1006.4 4.8
2015-Apr-01 03:00N 59°51' W 147°38'1 0.2 1006.0 6.2
2015-Apr-01 00:00N 59°50' W 147°39'1 0.1 1005.1 6.6
2015-Mar-31 17:00N 59°50' W 147°38'0 0.2 1001.4 3.5
2015-Mar-31 16:00N 59°51' W 147°38'0 0.1 1001.1 3.0
2015-Mar-31 15:00N 59°50' W 147°38'1 0.8 1000.6 2.8
2015-Mar-31 14:00N 59°50' W 147°38'1 0.1 1000.3 2.8
2015-Mar-31 06:00N 59°51' W 147°38'0 0.0 1000.6 2.9
2015-Mar-31 05:00N 59°51' W 147°38'0 0.0 1001.0 3.5
2015-Mar-31 04:00N 59°51' W 147°38'0 0.2 1001.2 4.6
2015-Mar-31 02:00N 59°50' W 147°39'0 0.1 1002.2 5.8
2015-Mar-31 01:00N 59°50' W 147°39'0 0.1 1002.6 6.0
2015-Mar-30 23:00N 59°51' W 147°38'0 0.2 1003.2 6.4
2015-Mar-30 22:00N 59°51' W 147°38'0 0.0 1003.4 6.5
2015-Mar-30 21:00N 59°51' W 147°38'0 0.1 1003.6 5.8
2015-Mar-30 17:00N 59°50' W 147°38'1 0.6 1003.5 3.7
2015-Mar-30 16:00N 59°51' W 147°39'0 0.2 1003.3 3.6
2015-Mar-30 15:00N 59°51' W 147°38'1 0.6 1003.4 3.4
2015-Mar-30 14:00N 59°51' W 147°37'0 0.3 1003.6 3.5
2015-Mar-30 13:00N 59°51' W 147°38'0 0.0 1003.6 3.3
2015-Mar-30 12:00N 59°51' W 147°38'0 0.2 1003.8 3.5
2015-Mar-30 11:00N 59°50' W 147°38'0 0.0 1003.6 3.7
2015-Mar-30 07:00N 59°50' W 147°38'0 0.0 1002.1 4.6
2015-Mar-30 06:00N 59°50' W 147°38'0 0.0 1001.7 5.1
2015-Mar-30 05:00N 59°50' W 147°38'0 0.0 1001.0 5.2
2015-Mar-30 04:00N 59°50' W 147°38'0 0.2 1000.4 5.4
2015-Mar-30 03:00N 59°51' W 147°38'0 0.1 999.7 5.9
2015-Mar-30 01:00N 59°51' W 147°38'0 0.1 998.8 5.7
2015-Mar-30 00:00N 59°51' W 147°38'0 0.2 998.4 7.1
2015-Mar-29 23:00N 59°50' W 147°38'0 0.0 997.8 6.7
2015-Mar-29 22:00N 59°50' W 147°38'0 0.4 997.3 5.9
2015-Mar-29 21:00N 59°50' W 147°38'0 0.1 996.6 6.0
2015-Mar-29 17:00N 59°50' W 147°38'1 0.3 994.0 5.1
2015-Mar-29 15:00N 59°51' W 147°38'0 0.3 993.0 4.6
2015-Mar-29 14:00N 59°51' W 147°38'0 0.2 992.8 4.5
2015-Mar-29 13:00N 59°51' W 147°39'0 0.2 992.6 4.2
2015-Mar-29 12:00N 59°51' W 147°39'0 0.0 992.5 4.0
2015-Mar-29 11:00N 59°51' W 147°39'1 0.2 992.5 3.2
2015-Mar-29 05:00N 59°51' W 147°36'0 0.0 993.2 2.8
2015-Mar-29 04:00N 59°51' W 147°36'0 0.0 994.0 3.3
2015-Mar-29 03:00N 59°51' W 147°36'0 0.0 994.9 3.4
2015-Mar-29 02:00N 59°51' W 147°36'1 0.4 995.9 3.6
2015-Mar-29 00:00N 59°50' W 147°38'0 0.0 997.5 3.9
2015-Mar-28 23:00N 59°50' W 147°38'0 0.0 998.2 3.7
2015-Mar-28 22:00N 59°50' W 147°38'1 0.5 999.0 4.2
2015-Mar-28 21:00N 59°51' W 147°39'0 0.0 999.5 3.6
2015-Mar-28 20:00N 59°51' W 147°39'1 0.3 1000.6 4.1
2015-Mar-28 17:00N 59°50' W 147°37'0 0.0 1000.7 4.1
2015-Mar-28 16:00N 59°50' W 147°37'1 0.4 1000.8 4.0
2015-Mar-28 14:00N 59°51' W 147°38'0 0.0 1001.4 4.0
2015-Mar-28 13:00N 59°51' W 147°38'0 0.1 1001.9 3.9
2015-Mar-28 11:00N 59°50' W 147°39'0 0.2 1002.6 3.2
2015-Mar-28 10:00N 59°51' W 147°38'0 0.1 1002.9 2.9
2015-Mar-28 07:00N 59°50' W 147°39'0 0.0 1003.9 4.0
2015-Mar-28 06:00N 59°50' W 147°39'0 0.4 1003.6 3.3
2015-Mar-28 05:00N 59°51' W 147°38'0 0.3 1003.6 4.2
2015-Mar-28 04:00N 59°51' W 147°38'0 0.1 1003.7 3.8
2015-Mar-28 02:00N 59°50' W 147°38'0 0.0 1004.1 6.0
2015-Mar-28 01:00N 59°50' W 147°38'0 0.0 1004.7 6.7
2015-Mar-28 00:00N 59°50' W 147°38'0 0.2 1004.9 7.9
2015-Mar-27 22:00N 59°50' W 147°39'1 0.8 1005.4 8.0
2015-Mar-27 21:00N 59°50' W 147°37'   1005.6 8.1

Dump ship's entire track history